Terminal Aerodrome Forecast
Issued by NWS Sioux Falls, SD

Home | Current Version | Previous Version | Text Only | Print | Product List | Glossary Off
Versions: 1 2 3 4 5 6 7 8 9 10 11 12 13 14 15 16 17

000
FTUS43 KFSD 171739
TAFSUX
TAF
KSUX 171739Z 1718/1818 VRB04KT P6SM SCT100
     FM172200 10004KT P6SM BKN090
     FM180900 11006KT 6SM -SHRA SCT030 OVC050
      TEMPO 1810/1812 4SM -TSRA OVC035CB
     FM181200 12006KT 6SM -SHRA OVC030=

USA.gov is the U.S. government's official web portal to all federal, state and local government web resources and services.